Time;durP1;ratioP1;P1;durP2;ratioP2;P2;SDS_P1;SDS_P2;PMS_P1;PMS_P2;Temp;Humidity;BMP_temperature;BMP_pressure;BME280_temperature;BME280_humidity;BME280_pressure;Samples;Min_cycle;Max_cycle;Signal;HPM_P1;HPM_P2
2021/04/09 00:01:44;;;;;;;;;;;;;;;4.17;55.21;101474.25;4939310;29;1016;-76
2021/04/09 00:04:11;;;;;;;;;;;;;;;4.12;54.75;101482.47;4938816;29;1277;-76
2021/04/09 00:06:36;;;;;;;;;;;;;;;4.23;54.31;101475.81;4939257;29;988;-76
2021/04/09 00:09:05;;;;;;;;;;;;;;;4.27;54.81;101463.22;4938636;29;881;-75
2021/04/09 00:11:30;;;;;;;;;;;;;;;4.18;54.59;101461.38;4938993;29;920;-75
2021/04/09 00:13:56;;;;;;;;;;;;;;;4.14;55.15;101461.94;4938625;29;1182;-75
2021/04/09 00:16:21;;;;;;;;;;;;;;;4.22;54.72;101454.22;4938721;29;1961;-75
2021/04/09 00:18:46;;;;;;;;;;;;;;;4.16;55.27;101453.47;4938691;29;909;-75
2021/04/09 00:21:12;;;;;;;;;;;;;;;4.12;54.85;101453.22;4938914;29;750;-75
2021/04/09 00:23:37;;;;;;;;;;;;;;;4.15;54.97;101460.03;4938807;29;1198;-76
2021/04/09 00:26:04;;;;;;;;;;;;;;;4.13;55.15;101462.22;4938673;29;756;-75
2021/04/09 00:28:29;;;;;;;;;;;;;;;4.10;55.13;101452.69;4938625;29;802;-75
2021/04/09 00:30:54;;;;;;;;;;;;;;;4.05;55.81;101449.16;4938699;29;945;-75
2021/04/09 00:33:20;;;;;;;;;;;;;;;3.98;55.75;101449.50;4939281;29;694;-75
2021/04/09 00:35:45;;;;;;;;;;;;;;;3.94;55.98;101427.41;4938329;29;1907;-76
2021/04/09 00:38:11;;;;;;;;;;;;;;;4.01;55.95;101431.72;4937977;29;850;-75
2021/04/09 00:40:37;;;;;;;;;;;;;;;4.04;55.81;101431.97;4938657;29;996;-76
2021/04/09 00:43:06;;;;;;;;;;;;;;;4.04;55.42;101426.50;4938750;29;925;-76
2021/04/09 00:45:31;;;;;;;;;;;;;;;4.04;54.95;101412.81;4938399;29;1278;-75
2021/04/09 00:47:57;;;;;;;;;;;;;;;3.95;55.50;101420.81;4938050;29;1039;-75
2021/04/09 00:50:22;;;;;;;;;;;;;;;4.01;55.55;101418.06;4937001;29;1009;-75
2021/04/09 00:52:47;;;;;;;;;;;;;;;3.94;55.79;101413.75;4938436;29;976;-75
2021/04/09 00:55:15;;;;;;;;;;;;;;;3.98;55.84;101411.25;4937887;29;2001;-76
2021/04/09 00:57:42;;;;;;;;;;;;;;;3.83;56.44;101406.72;4937529;29;1017;-76
2021/04/09 01:00:11;;;;;;;;;;;;;;;3.81;56.10;101399.88;4937500;29;798;-75
2021/04/09 01:02:37;;;;;;;;;;;;;;;3.82;56.30;101396.06;4938088;29;947;-75
2021/04/09 01:05:06;;;;;;;;;;;;;;;3.68;56.97;101404.09;4938108;29;1286;-75
2021/04/09 01:07:32;;;;;;;;;;;;;;;3.55;57.13;101392.69;4938008;29;1024;-76
2021/04/09 01:09:57;;;;;;;;;;;;;;;3.54;57.34;101396.50;4938411;29;917;-75
2021/04/09 01:12:23;;;;;;;;;;;;;;;3.51;57.41;101391.63;4938494;29;1027;-75
2021/04/09 01:14:52;;;;;;;;;;;;;;;3.60;57.14;101385.56;4938367;29;1237;-75
2021/04/09 01:17:34;;;;;;;;;;;;;;;3.49;57.43;101380.16;4937813;29;1960;-76
2021/04/09 01:20:30;;;;;;;;;;;;;;;3.39;58.21;101386.50;4938105;29;822;-75
2021/04/09 01:23:32;;;;;;;;;;;;;;;3.28;58.64;101378.66;4937980;29;893;-75
2021/04/09 01:26:07;;;;;;;;;;;;;;;3.44;57.99;101371.19;4937885;29;989;-75
2021/04/09 01:29:05;;;;;;;;;;;;;;;3.30;57.99;101369.06;4937138;29;823;-76
2021/04/09 01:31:51;;;;;;;;;;;;;;;3.31;58.10;101370.72;4937709;29;829;-75
2021/04/09 01:34:18;;;;;;;;;;;;;;;3.29;58.08;101359.28;4937944;29;1270;-75
2021/04/09 01:36:53;;;;;;;;;;;;;;;3.27;58.78;101363.38;4937605;29;1887;-76
2021/04/09 01:39:27;;;;;;;;;;;;;;;3.18;59.02;101366.72;4937380;29;885;-75
2021/04/09 01:41:54;;;;;;;;;;;;;;;3.16;58.96;101370.81;4938073;29;1846;-75
2021/04/09 01:44:24;;;;;;;;;;;;;;;3.15;58.81;101358.25;4937559;29;1336;-75
2021/04/09 01:46:53;;;;;;;;;;;;;;;3.18;59.32;101341.31;4937892;29;845;-75
2021/04/09 01:49:20;;;;;;;;;;;;;;;3.10;59.15;101333.75;4936994;29;889;-76
2021/04/09 01:51:47;;;;;;;;;;;;;;;3.21;59.17;101324.38;4937722;29;992;-75
2021/04/09 01:54:14;;;;;;;;;;;;;;;3.05;59.06;101329.13;4937652;29;1171;-75
2021/04/09 01:56:42;;;;;;;;;;;;;;;3.07;59.34;101324.19;4937667;29;1956;-75
2021/04/09 01:59:08;;;;;;;;;;;;;;;2.98;59.60;101326.69;4937080;29;956;-75
2021/04/09 02:01:38;;;;;;;;;;;;;;;3.10;59.14;101329.09;4937719;29;961;-75
2021/04/09 02:04:04;;;;;;;;;;;;;;;3.07;59.61;101317.91;4937527;29;1213;-75
2021/04/09 02:06:32;;;;;;;;;;;;;;;3.03;59.55;101316.84;4937669;29;866;-75
2021/04/09 02:08:58;;;;;;;;;;;;;;;2.92;60.02;101313.34;4937290;29;865;-76
2021/04/09 02:11:24;;;;;;;;;;;;;;;2.96;59.71;101298.06;4938933;29;969;-75
2021/04/09 02:13:51;;;;;;;;;;;;;;;2.93;59.96;101302.16;4939661;29;1333;-75
2021/04/09 02:16:17;;;;;;;;;;;;;;;2.93;60.07;101295.91;4941216;29;1954;-76
2021/04/09 02:18:43;;;;;;;;;;;;;;;2.88;60.08;101294.00;4940699;29;851;-76
2021/04/09 02:21:09;;;;;;;;;;;;;;;2.85;60.44;101280.13;4941301;29;838;-75
2021/04/09 02:23:42;;;;;;;;;;;;;;;2.81;59.97;101277.13;4941112;29;1186;-76
2021/04/09 02:26:07;;;;;;;;;;;;;;;2.92;60.19;101277.88;4941124;29;830;-76
2021/04/09 02:28:34;;;;;;;;;;;;;;;2.80;60.67;101273.59;4940028;29;950;-75
2021/04/09 02:31:03;;;;;;;;;;;;;;;2.76;60.44;101272.50;4940896;29;893;-75
2021/04/09 02:33:32;;;;;;;;;;;;;;;2.70;60.48;101265.47;4941413;29;1178;-76
2021/04/09 02:35:57;;;;;;;;;;;;;;;2.67;60.29;101270.66;4941014;29;1898;-75
2021/04/09 02:38:24;;;;;;;;;;;;;;;2.72;60.69;101268.72;4940197;29;814;-75
2021/04/09 02:40:51;;;;;;;;;;;;;;;2.68;60.98;101255.91;4940858;29;794;-76
2021/04/09 02:43:17;;;;;;;;;;;;;;;2.62;61.19;101253.22;4940650;29;890;-75
2021/04/09 02:45:42;;;;;;;;;;;;;;;2.81;60.23;101258.03;4940486;29;1250;-75
2021/04/09 02:48:12;;;;;;;;;;;;;;;2.90;59.45;101255.53;4940361;29;901;-76
2021/04/09 02:50:42;;;;;;;;;;;;;;;2.84;60.04;101243.84;4940264;29;937;-75
2021/04/09 02:53:14;;;;;;;;;;;;;;;2.87;59.94;101245.19;4940782;29;747;-75
2021/04/09 02:55:43;;;;;;;;;;;;;;;2.70;60.67;101235.47;4955142;28;1963;-75
2021/04/09 02:58:10;;;;;;;;;;;;;;;2.62;61.16;101234.13;4939940;29;960;-75
2021/04/09 03:00:36;;;;;;;;;;;;;;;2.73;60.79;101231.34;4938670;29;838;-75
2021/04/09 03:03:05;;;;;;;;;;;;;;;2.76;60.63;101225.34;4940070;29;817;-75
2021/04/09 03:05:31;;;;;;;;;;;;;;;2.73;60.39;101225.91;4940092;29;1158;-75
2021/04/09 03:07:59;;;;;;;;;;;;;;;2.75;60.01;101224.53;4939805;29;802;-75
2021/04/09 03:10:24;;;;;;;;;;;;;;;2.73;60.59;101231.34;4939879;29;934;-75
2021/04/09 03:12:50;;;;;;;;;;;;;;;2.82;60.25;101227.75;4940351;29;838;-75
2021/04/09 03:15:20;;;;;;;;;;;;;;;2.76;60.50;101230.78;4940106;29;1883;-75
2021/04/09 03:18:07;;;;;;;;;;;;;;;2.95;59.56;101226.31;4939463;29;782;-75
2021/04/09 03:20:33;;;;;;;;;;;;;;;3.03;59.67;101221.34;4939986;29;877;-75
2021/04/09 03:22:58;;;;;;;;;;;;;;;2.98;59.98;101212.09;4939363;29;1062;-75
2021/04/09 03:25:24;;;;;;;;;;;;;;;3.01;59.83;101208.81;4940077;29;1158;-75
2021/04/09 03:27:49;;;;;;;;;;;;;;;3.04;59.91;101206.59;4939254;29;912;-75
2021/04/09 03:30:19;;;;;;;;;;;;;;;3.00;59.80;101200.91;4940493;29;854;-75
2021/04/09 03:32:46;;;;;;;;;;;;;;;3.12;59.34;101193.19;4940229;29;1024;-75
2021/04/09 03:35:12;;;;;;;;;;;;;;;3.07;60.34;101190.47;4940117;29;1957;-75
2021/04/09 03:37:38;;;;;;;;;;;;;;;3.10;59.61;101189.13;4939717;29;972;-75
2021/04/09 03:40:04;;;;;;;;;;;;;;;3.11;59.98;101188.81;4954543;29;928;-75
2021/04/09 03:42:29;;;;;;;;;;;;;;;3.23;59.63;101182.19;4939867;29;1155;-75
2021/04/09 03:44:55;;;;;;;;;;;;;;;3.15;60.09;101189.03;4939536;29;1376;-75
2021/04/09 03:47:20;;;;;;;;;;;;;;;3.19;59.44;101184.66;4939520;29;1000;-75
2021/04/09 03:49:45;;;;;;;;;;;;;;;3.20;59.75;101173.47;4940091;29;1064;-75
2021/04/09 03:52:11;;;;;;;;;;;;;;;3.19;60.16;101180.00;4939541;29;886;-75
2021/04/09 03:54:36;;;;;;;;;;;;;;;3.27;59.81;101178.59;4939420;29;1257;-76
2021/04/09 03:57:02;;;;;;;;;;;;;;;3.24;59.81;101179.16;4939338;29;1949;-75
2021/04/09 03:59:27;;;;;;;;;;;;;;;3.22;60.13;101175.06;4938952;29;838;-75
2021/04/09 04:01:52;;;;;;;;;;;;;;;3.29;59.38;101181.84;4939175;29;897;-75
2021/04/09 04:04:18;;;;;;;;;;;;;;;3.34;59.52;101180.97;4939097;29;1174;-75
2021/04/09 04:06:43;;;;;;;;;;;;;;;3.37;59.87;101172.22;4938648;29;841;-76
2021/04/09 04:09:09;;;;;;;;;;;;;;;3.44;59.43;101172.69;4938886;29;1004;-75
2021/04/09 04:11:34;;;;;;;;;;;;;;;3.42;59.87;101168.63;4939356;29;1040;-75
2021/04/09 04:13:59;;;;;;;;;;;;;;;3.47;59.25;101171.31;4938887;29;1166;-75
2021/04/09 04:16:25;;;;;;;;;;;;;;;3.37;59.82;101177.69;4938848;29;1894;-75
2021/04/09 04:18:50;;;;;;;;;;;;;;;3.42;59.49;101171.38;4938444;29;900;-76
2021/04/09 04:21:16;;;;;;;;;;;;;;;3.41;59.99;101161.53;4938678;29;1116;-75
2021/04/09 04:23:41;;;;;;;;;;;;;;;3.48;59.26;101151.09;4938785;29;1312;-76
2021/04/09 04:26:06;;;;;;;;;;;;;;;3.46;59.41;101148.66;4938991;29;854;-75
2021/04/09 04:28:32;;;;;;;;;;;;;;;3.41;60.38;101158.81;4938050;29;957;-75
2021/04/09 04:30:59;;;;;;;;;;;;;;;3.41;60.25;101158.81;4938642;29;798;-75
2021/04/09 04:33:27;;;;;;;;;;;;;;;3.51;60.02;101156.81;4939353;29;818;-75
2021/04/09 04:35:53;;;;;;;;;;;;;;;3.44;59.73;101155.50;4938700;29;1971;-75
2021/04/09 04:38:20;;;;;;;;;;;;;;;3.47;60.44;101142.09;4938234;29;888;-75
2021/04/09 04:40:46;;;;;;;;;;;;;;;3.38;60.50;101155.56;4939095;29;842;-76
2021/04/09 04:43:12;;;;;;;;;;;;;;;3.50;60.46;101154.38;4939548;29;857;-76
2021/04/09 04:45:38;;;;;;;;;;;;;;;3.43;60.45;101157.44;4938758;29;1266;-76
2021/04/09 04:48:06;;;;;;;;;;;;;;;3.41;60.52;101158.81;4938750;29;822;-76
2021/04/09 04:50:32;;;;;;;;;;;;;;;3.50;60.70;101148.91;4939158;29;1055;-76
2021/04/09 04:52:59;;;;;;;;;;;;;;;3.41;61.06;101142.44;4939009;29;818;-75
2021/04/09 04:55:25;;;;;;;;;;;;;;;3.45;60.85;101135.31;4938845;29;1894;-76
2021/04/09 04:57:50;;;;;;;;;;;;;;;3.48;61.14;101138.28;4938831;29;886;-76
2021/04/09 05:00:16;;;;;;;;;;;;;;;3.41;60.31;101126.03;4938179;29;869;-75
2021/04/09 05:02:41;;;;;;;;;;;;;;;3.50;60.89;101136.06;4937943;29;862;-75
2021/04/09 05:05:08;;;;;;;;;;;;;;;3.57;60.74;101133.00;4938079;29;1253;-75
2021/04/09 05:07:33;;;;;;;;;;;;;;;3.57;60.52;101139.25;4937820;29;838;-75
2021/04/09 05:09:58;;;;;;;;;;;;;;;3.63;60.25;101150.94;4938129;29;886;-76
2021/04/09 05:12:24;;;;;;;;;;;;;;;3.60;60.90;101153.44;4938105;29;776;-76
2021/04/09 05:14:53;;;;;;;;;;;;;;;3.61;61.07;101161.34;4938068;29;1218;-75
2021/04/09 05:17:19;;;;;;;;;;;;;;;3.57;60.77;101166.56;4937573;29;1958;-76
2021/04/09 05:19:45;;;;;;;;;;;;;;;3.73;60.75;101160.94;4938034;29;985;-75
2021/04/09 05:22:10;;;;;;;;;;;;;;;3.74;61.03;101162.59;4937759;29;916;-76
2021/04/09 05:24:35;;;;;;;;;;;;;;;3.74;60.47;101170.78;4938018;29;1186;-76
2021/04/09 05:27:02;;;;;;;;;;;;;;;3.72;60.79;101160.13;4938109;29;904;-75
2021/04/09 05:29:28;;;;;;;;;;;;;;;3.74;61.00;101168.06;4937296;29;900;-77
2021/04/09 05:31:53;;;;;;;;;;;;;;;3.76;61.02;101166.63;4938346;29;862;-76
2021/04/09 05:34:19;;;;;;;;;;;;;;;3.76;60.64;101161.19;4937945;29;1261;-76
2021/04/09 05:36:44;;;;;;;;;;;;;;;3.79;61.05;101154.34;4937866;29;1946;-75
2021/04/09 05:39:09;;;;;;;;;;;;;;;3.82;60.98;101158.38;4937848;29;974;-76
2021/04/09 05:41:35;;;;;;;;;;;;;;;3.97;60.73;101162.88;4937961;29;985;-76
2021/04/09 05:44:00;;;;;;;;;;;;;;;4.00;60.72;101168.56;4937626;29;1271;-76
2021/04/09 05:46:26;;;;;;;;;;;;;;;4.20;60.22;101166.69;4939521;29;917;-76
2021/04/09 05:48:51;;;;;;;;;;;;;;;4.32;59.57;101162.41;4941141;29;853;-77
2021/04/09 05:51:16;;;;;;;;;;;;;;;4.36;59.68;101165.41;4941366;29;922;-77
2021/04/09 05:53:43;;;;;;;;;;;;;;;4.32;59.93;101169.81;4941630;29;1188;-75
2021/04/09 05:56:08;;;;;;;;;;;;;;;4.30;60.12;101166.56;4941432;29;1903;-75
2021/04/09 05:58:33;;;;;;;;;;;;;;;4.33;60.14;101163.25;4941441;29;993;-76
2021/04/09 06:00:59;;;;;;;;;;;;;;;4.29;60.27;101157.56;4941799;29;1015;-76
2021/04/09 06:03:24;;;;;;;;;;;;;;;4.15;60.19;101123.81;4941360;29;901;-76
2021/04/09 06:05:49;;;;;;;;;;;;;;;4.51;59.46;101153.41;4941238;29;1922;-76
2021/04/09 06:08:15;;;;;;;;;;;;;;;4.65;59.39;101157.03;4941062;29;856;-76
2021/04/09 06:10:40;;;;;;;;;;;;;;;5.03;57.98;101142.50;4941206;29;885;-76
2021/04/09 06:13:06;;;;;;;;;;;;;;;5.20;57.88;101150.97;4941321;29;839;-76
2021/04/09 06:15:34;;;;;;;;;;;;;;;5.05;57.97;101153.97;4940944;29;1898;-76
2021/04/09 06:18:00;;;;;;;;;;;;;;;4.96;57.99;101144.81;4940656;29;869;-76
2021/04/09 06:20:25;;;;;;;;;;;;;;;4.89;58.44;101146.00;4940743;29;873;-76
2021/04/09 06:22:51;;;;;;;;;;;;;;;5.12;58.31;101145.38;4941187;29;914;-76
2021/04/09 06:25:19;;;;;;;;;;;;;;;5.68;56.32;101146.31;4940892;29;1171;-75
2021/04/09 06:27:44;;;;;;;;;;;;;;;5.94;55.67;101138.41;4940529;29;959;-76
2021/04/09 06:30:10;;;;;;;;;;;;;;;6.17;54.55;101139.31;4941130;29;867;-75
2021/04/09 06:32:36;;;;;;;;;;;;;;;6.59;53.69;101137.31;4940726;29;1055;-75
2021/04/09 06:35:02;;;;;;;;;;;;;;;6.28;54.37;101138.00;4942305;29;1262;-76
2021/04/09 06:37:27;;;;;;;;;;;;;;;6.74;53.32;101136.94;4940447;29;1890;-75
2021/04/09 06:39:53;;;;;;;;;;;;;;;6.51;54.16;101138.84;4940816;29;969;-76
2021/04/09 06:42:18;;;;;;;;;;;;;;;6.83;53.29;101134.28;4940933;29;884;-75
2021/04/09 06:44:46;;;;;;;;;;;;;;;6.73;53.44;101129.03;4940588;29;1266;-76
2021/04/09 06:47:11;;;;;;;;;;;;;;;6.66;53.65;101129.47;4954987;29;818;-75
2021/04/09 06:49:37;;;;;;;;;;;;;;;6.83;53.42;101114.25;4940698;29;1151;-76
2021/04/09 06:52:03;;;;;;;;;;;;;;;7.10;52.74;101113.31;4940388;29;842;-76
2021/04/09 06:54:29;;;;;;;;;;;;;;;7.56;51.36;101114.03;4940444;29;1245;-75
2021/04/09 06:56:56;;;;;;;;;;;;;;;8.17;50.19;101114.25;4939746;29;1960;-76
2021/04/09 06:59:31;;;;;;;;;;;;;;;8.53;48.85;101119.50;4939633;29;851;-76
2021/04/09 07:01:58;;;;;;;;;;;;;;;11.15;43.10;101106.41;4940302;29;807;-76
2021/04/09 07:04:24;;;;;;;;;;;;;;;14.78;35.23;101097.06;4940355;29;1159;-76
2021/04/09 07:06:50;;;;;;;;;;;;;;;15.69;32.66;101100.28;4940085;29;917;-75
2021/04/09 07:09:16;;;;;;;;;;;;;;;14.97;33.79;101090.69;4939812;29;960;-75
2021/04/09 07:11:51;;;;;;;;;;;;;;;13.12;37.20;101097.88;4940284;29;829;-76
2021/04/09 07:14:17;;;;;;;;;;;;;;;12.69;37.88;101093.91;4939774;29;1222;-75
2021/04/09 07:16:57;;;;;;;;;;;;;;;14.01;36.26;101102.09;4939583;29;1907;-75
2021/04/09 07:19:43;;;;;;;;;;;;;;;15.66;33.24;101092.69;4939772;29;853;-76
2021/04/09 07:22:08;;;;;;;;;;;;;;;15.67;32.59;101091.50;4939793;29;1813;-75
2021/04/09 07:24:33;;;;;;;;;;;;;;;16.46;31.63;101087.94;4938507;29;1154;-75
2021/04/09 07:27:00;;;;;;;;;;;;;;;15.71;32.76;101092.38;4939691;29;929;-75
2021/04/09 07:29:31;;;;;;;;;;;;;;;13.91;36.06;101095.16;4939173;29;835;-75
2021/04/09 07:32:09;;;;;;;;;;;;;;;14.03;36.20;101094.25;4939773;29;868;-76
2021/04/09 07:34:58;;;;;;;;;;;;;;;14.07;36.39;101099.88;4939532;29;1224;-75
2021/04/09 07:37:25;;;;;;;;;;;;;;;12.48;39.64;101105.97;4939044;29;1894;-75
2021/04/09 07:40:02;;;;;;;;;;;;;;;12.76;39.54;101092.16;4939494;29;996;-76
2021/04/09 07:42:37;;;;;;;;;;;;;;;13.22;38.97;101107.63;4939513;29;839;-75
2021/04/09 07:45:11;;;;;;;;;;;;;;;12.45;40.67;101114.19;4939650;29;1362;-75
2021/04/09 07:47:39;;;;;;;;;;;;;;;12.49;41.02;101123.41;4938962;29;885;-75
2021/04/09 07:50:08;;;;;;;;;;;;;;;12.39;41.99;101113.63;4939402;29;935;-75
2021/04/09 07:52:45;;;;;;;;;;;;;;;12.23;42.83;101114.34;4939384;29;957;-75
2021/04/09 07:55:23;;;;;;;;;;;;;;;12.05;42.42;101101.91;4939290;29;1234;-75
2021/04/09 07:57:49;;;;;;;;;;;;;;;12.69;41.67;101110.53;4938707;29;1005;-77
2021/04/09 08:00:15;;;;;;;;;;;;;;;13.67;39.75;101109.22;4939083;29;923;-76
2021/04/09 08:02:40;;;;;;;;;;;;;;;12.97;40.83;101114.09;4939034;29;968;-76
2021/04/09 08:05:06;;;;;;;;;;;;;;;12.60;42.35;101107.91;4938749;29;1206;-76
2021/04/09 08:07:33;;;;;;;;;;;;;;;13.66;40.01;101100.09;4938458;29;858;-77
2021/04/09 08:09:59;;;;;;;;;;;;;;;13.37;40.68;101117.97;4938743;29;984;-76
2021/04/09 08:12:28;;;;;;;;;;;;;;;14.58;39.28;101102.59;4939434;29;869;-76
2021/04/09 08:14:54;;;;;;;;;;;;;;;13.99;39.47;101104.44;4938790;29;1261;-76
2021/04/09 08:17:23;;;;;;;;;;;;;;;13.57;41.16;101115.31;4938119;29;1894;-76
2021/04/09 08:19:53;;;;;;;;;;;;;;;12.23;43.54;101125.41;4938884;29;889;-76
2021/04/09 08:22:20;;;;;;;;;;;;;;;11.99;45.42;101123.47;4938854;29;782;-76
2021/04/09 08:24:47;;;;;;;;;;;;;;;12.14;44.20;101110.88;4938735;29;1344;-76
2021/04/09 08:27:13;;;;;;;;;;;;;;;12.14;44.48;101108.13;4939114;29;834;-77
2021/04/09 08:29:41;;;;;;;;;;;;;;;12.81;43.68;101113.25;4938841;29;905;-76
2021/04/09 08:32:08;;;;;;;;;;;;;;;13.88;41.81;101111.72;4938676;29;746;-76
2021/04/09 08:34:34;;;;;;;;;;;;;;;12.73;43.82;101115.00;4938189;29;1364;-76
2021/04/09 08:37:00;;;;;;;;;;;;;;;13.03;42.79;101125.75;4939517;29;1895;-76
2021/04/09 08:39:26;;;;;;;;;;;;;;;13.43;41.95;101121.31;4938774;29;1017;-77
2021/04/09 08:41:53;;;;;;;;;;;;;;;14.42;40.36;101127.63;4938127;29;1053;-76
2021/04/09 08:44:18;;;;;;;;;;;;;;;13.47;41.94;101113.88;4938219;29;1242;-77
2021/04/09 08:46:45;;;;;;;;;;;;;;;12.57;44.25;101114.16;4938285;29;909;-76
2021/04/09 08:49:13;;;;;;;;;;;;;;;13.13;42.73;101147.44;4938034;29;850;-76
2021/04/09 08:51:40;;;;;;;;;;;;;;;12.66;43.45;101116.78;4938297;29;854;-76
2021/04/09 08:54:29;;;;;;;;;;;;;;;12.17;44.69;101128.78;4938502;29;1276;-77
2021/04/09 08:56:57;;;;;;;;;;;;;;;12.07;44.83;101135.56;4938569;29;1891;-76
2021/04/09 08:59:37;;;;;;;;;;;;;;;12.47;44.11;101128.50;4938442;29;855;-76
2021/04/09 09:02:15;;;;;;;;;;;;;;;12.48;44.17;101130.13;4938228;29;865;-76
2021/04/09 09:05:04;;;;;;;;;;;;;;;11.66;46.05;101129.06;4938004;28;1566;-76
2021/04/09 09:07:51;;;;;;;;;;;;;;;12.33;45.75;101137.97;4937827;29;901;-76
2021/04/09 09:10:20;;;;;;;;;;;;;;;13.68;42.36;101119.97;4938566;29;837;-77
2021/04/09 09:13:03;;;;;;;;;;;;;;;14.30;41.18;101122.22;4938207;29;853;-76
2021/04/09 09:15:41;;;;;;;;;;;;;;;15.44;38.10;101117.38;4937934;29;1968;-77
2021/04/09 09:18:27;;;;;;;;;;;;;;;14.98;39.50;101123.66;4938859;29;870;-75
2021/04/09 09:21:05;;;;;;;;;;;;;;;14.75;39.16;101131.94;4935661;28;1475;-76
2021/04/09 09:23:48;;;;;;;;;;;;;;;13.04;42.30;101138.44;4937302;29;1214;-76
2021/04/09 09:26:37;;;;;;;;;;;;;;;12.79;44.43;101140.53;4937326;29;814;-76
2021/04/09 09:29:23;;;;;;;;;;;;;;;12.41;44.41;101142.56;4937004;29;838;-76
2021/04/09 09:31:49;;;;;;;;;;;;;;;12.39;45.10;101138.56;4937691;29;826;-76
2021/04/09 09:34:17;;;;;;;;;;;;;;;12.88;43.80;101124.53;4937866;29;1224;-77
2021/04/09 09:37:07;;;;;;;;;;;;;;;13.68;41.96;101116.38;4936493;29;1898;-76
2021/04/09 09:39:46;;;;;;;;;;;;;;;13.95;41.44;101111.91;4938129;29;818;-76
2021/04/09 09:42:11;;;;;;;;;;;;;;;12.90;43.40;101118.66;4937516;29;896;-76
2021/04/09 09:44:39;;;;;;;;;;;;;;;12.82;44.14;101116.84;4937273;29;1376;-76
2021/04/09 09:47:14;;;;;;;;;;;;;;;14.20;41.95;101112.47;4938017;29;831;-76
2021/04/09 09:49:40;;;;;;;;;;;;;;;15.41;38.67;101116.13;4937704;29;817;-76
2021/04/09 09:52:21;;;;;;;;;;;;;;;14.56;40.11;101102.13;4937188;29;961;-76
2021/04/09 09:55:12;;;;;;;;;;;;;;;14.51;40.71;101109.97;4937754;29;1396;-76
2021/04/09 09:57:44;;;;;;;;;;;;;;;13.29;43.03;101111.41;4937167;29;1911;-76
2021/04/09 10:00:11;;;;;;;;;;;;;;;12.71;44.61;101108.22;4937949;29;1362;-76
2021/04/09 10:02:36;;;;;;;;;;;;;;;13.10;43.62;101095.47;4938018;29;806;-76
2021/04/09 10:05:01;;;;;;;;;;;;;;;12.89;44.10;101103.16;4937520;29;1203;-76
2021/04/09 10:07:27;;;;;;;;;;;;;;;12.92;44.96;101102.47;4936886;29;876;-76
2021/04/09 10:09:53;;;;;;;;;;;;;;;13.53;43.02;101098.56;4937491;29;970;-76
2021/04/09 10:12:22;;;;;;;;;;;;;;;13.10;44.21;101103.78;4937819;29;892;-76
2021/04/09 10:14:49;;;;;;;;;;;;;;;13.15;44.38;101108.28;4936954;29;1182;-76
2021/04/09 10:17:14;;;;;;;;;;;;;;;13.70;42.64;101120.44;4936562;29;1898;-76
2021/04/09 10:19:59;;;;;;;;;;;;;;;13.89;42.70;101105.81;4937580;29;1096;-76
2021/04/09 10:22:25;;;;;;;;;;;;;;;15.38;39.22;101100.19;4936266;29;858;-76
2021/04/09 10:24:50;;;;;;;;;;;;;;;14.33;41.23;101106.78;4937048;29;1167;-76
2021/04/09 10:27:15;;;;;;;;;;;;;;;13.36;43.15;101116.38;4936307;29;901;-76
2021/04/09 10:29:41;;;;;;;;;;;;;;;12.56;45.48;101107.81;4936995;29;937;-76
2021/04/09 10:32:18;;;;;;;;;;;;;;;13.63;43.27;101092.47;4937775;29;981;-76
2021/04/09 10:34:47;;;;;;;;;;;;;;;13.83;42.94;101096.16;4940406;29;1321;-76
2021/04/09 10:37:21;;;;;;;;;;;;;;;12.14;46.13;101107.31;4939933;29;1971;-78
2021/04/09 10:39:47;;;;;;;;;;;;;;;11.70;47.97;101105.13;4940371;29;834;-76
2021/04/09 10:42:12;;;;;;;;;;;;;;;10.85;50.87;101120.34;4940073;29;894;-76
2021/04/09 10:44:38;;;;;;;;;;;;;;;10.65;51.31;101120.00;4940191;29;1273;-76
2021/04/09 10:47:07;;;;;;;;;;;;;;;9.93;52.32;101120.00;4940368;29;779;-76
2021/04/09 10:49:43;;;;;;;;;;;;;;;9.53;53.58;101120.31;4940143;29;902;-77
2021/04/09 10:52:09;;;;;;;;;;;;;;;9.51;54.65;101125.34;4940031;29;874;-76
2021/04/09 10:54:37;;;;;;;;;;;;;;;9.26;54.98;101138.06;4939930;29;1284;-75
2021/04/09 10:57:04;;;;;;;;;;;;;;;9.24;55.74;101132.09;4940288;29;1902;-75
2021/04/09 10:59:41;;;;;;;;;;;;;;;9.50;54.88;101139.44;4939656;29;992;-75
2021/04/09 11:02:18;;;;;;;;;;;;;;;9.63;54.96;101132.91;4940041;29;937;-76
2021/04/09 11:04:50;;;;;;;;;;;;;;;9.78;54.92;101124.09;4939925;29;1253;-76
2021/04/09 11:07:16;;;;;;;;;;;;;;;10.25;54.08;101120.44;4939664;29;806;-76
2021/04/09 11:09:45;;;;;;;;;;;;;;;10.25;53.74;101138.97;4940054;29;810;-75
2021/04/09 11:12:19;;;;;;;;;;;;;;;9.96;54.26;101126.78;4939601;29;902;-76
2021/04/09 11:14:45;;;;;;;;;;;;;;;10.41;53.58;101119.88;4939810;29;1194;-75
2021/04/09 11:17:29;;;;;;;;;;;;;;;11.64;50.10;101112.84;4939220;29;1978;-75
2021/04/09 11:19:57;;;;;;;;;;;;;;;12.68;48.62;101120.00;4940238;29;917;-75
2021/04/09 11:22:24;;;;;;;;;;;;;;;12.48;47.79;101125.38;4939765;29;861;-76
2021/04/09 11:24:57;;;;;;;;;;;;;;;11.49;49.74;101113.50;4939368;29;1229;-75
2021/04/09 11:27:24;;;;;;;;;;;;;;;11.35;50.67;101116.59;4939060;29;1052;-76
2021/04/09 11:29:50;;;;;;;;;;;;;;;13.75;44.30;101104.66;4939741;29;1028;-75
2021/04/09 11:32:19;;;;;;;;;;;;;;;16.54;38.96;101091.59;4939409;29;1043;-76
2021/04/09 11:34:46;;;;;;;;;;;;;;;16.99;37.31;101089.81;4939227;29;1256;-76
2021/04/09 11:37:16;;;;;;;;;;;;;;;15.17;40.53;101094.22;4938869;29;1890;-77
2021/04/09 11:39:54;;;;;;;;;;;;;;;13.39;44.80;101103.75;4939805;29;743;-77
2021/04/09 11:42:34;;;;;;;;;;;;;;;12.10;47.92;101098.09;4939361;29;887;-77
2021/04/09 11:45:08;;;;;;;;;;;;;;;11.84;49.35;101097.28;4938128;29;1321;-74
2021/04/09 11:47:36;;;;;;;;;;;;;;;11.91;49.10;101098.69;5554075;23;2125;-76
2021/04/09 11:50:03;;;;;;;;;;;;;;;11.93;48.42;101099.94;4958715;28;1721;-77
2021/04/09 11:52:29;;;;;;;;;;;;;;;11.73;50.10;101090.59;4960528;28;781;-74
2021/04/09 11:54:54;;;;;;;;;;;;;;;11.23;50.91;101094.44;4949033;28;2030;-75
2021/04/09 11:57:25;;;;;;;;;;;;;;;11.02;51.08;101100.00;4952585;28;3161;-75
2021/04/09 11:59:52;;;;;;;;;;;;;;;10.80;52.34;101099.25;4945700;28;1717;-76
2021/04/09 12:02:23;;;;;;;;;;;;;;;11.20;51.65;101097.91;4948990;29;1611;-82
2021/04/09 12:04:50;;;;;;;;;;;;;;;10.94;51.96;101096.22;4953953;28;1699;-81
2021/04/09 12:07:16;;;;;;;;;;;;;;;10.52;53.09;101102.59;4948842;29;1623;-82
2021/04/09 12:09:44;;;;;;;;;;;;;;;10.31;53.94;101104.47;4966663;28;1284;-82
2021/04/09 12:12:14;;;;;;;;;;;;;;;9.88;54.66;101109.13;4965210;28;1587;-82
2021/04/09 12:15:00;;;;;;;;;;;;;;;9.61;56.02;101118.66;4953729;29;1509;-83
2021/04/09 12:17:25;;;;;;;;;;;;;;;9.43;57.08;101108.81;4966388;28;1882;-83
2021/04/09 12:19:54;;;;;;;;;;;;;;;9.55;56.32;101109.78;4966520;28;1273;-83
2021/04/09 12:22:20;;;;;;;;;;;;;;;9.59;56.71;101121.75;4949801;28;1799;-83
2021/04/09 12:24:45;;;;;;;;;;;;;;;9.59;55.97;101120.94;4951330;29;1396;-82
2021/04/09 12:27:12;;;;;;;;;;;;;;;9.46;56.77;101116.44;4954019;29;1605;-83
2021/04/09 12:29:37;;;;;;;;;;;;;;;9.38;57.11;101124.41;4967053;28;1153;-82
2021/04/09 12:32:05;;;;;;;;;;;;;;;9.51;56.69;101119.81;4974661;28;1657;-83
2021/04/09 12:34:30;;;;;;;;;;;;;;;9.33;57.05;101110.81;4978156;28;1756;-82
2021/04/09 12:36:55;;;;;;;;;;;;;;;9.25;57.67;101116.34;4969202;28;1961;-82
2021/04/09 12:39:24;;;;;;;;;;;;;;;9.09;58.09;101107.81;4963551;28;1556;-82
2021/04/09 12:41:50;;;;;;;;;;;;;;;9.06;58.41;101120.25;4965253;29;936;-82
2021/04/09 12:44:17;;;;;;;;;;;;;;;9.01;59.16;101117.69;4950822;28;3191;-82
2021/04/09 12:46:50;;;;;;;;;;;;;;;9.14;58.68;101122.22;4949241;29;901;-83
2021/04/09 12:49:17;;;;;;;;;;;;;;;9.19;57.83;101115.72;4964615;29;1564;-83
2021/04/09 12:51:43;;;;;;;;;;;;;;;9.18;57.91;101125.13;4969459;28;1543;-83
2021/04/09 12:54:08;;;;;;;;;;;;;;;9.12;58.06;101110.72;4958034;28;1611;-83
2021/04/09 12:56:34;;;;;;;;;;;;;;;9.09;58.28;101113.31;4969091;28;1970;-83
2021/04/09 12:59:00;;;;;;;;;;;;;;;9.19;57.94;101121.22;4967841;28;1655;-82
2021/04/09 13:01:26;;;;;;;;;;;;;;;9.34;58.01;101109.69;4957862;28;1663;-82
2021/04/09 13:03:51;;;;;;;;;;;;;;;9.51;57.51;101117.06;4951246;29;1670;-83
2021/04/09 13:06:16;;;;;;;;;;;;;;;9.67;56.95;101122.88;4953083;29;1661;-82